sensor_id;sensor_type;location;lat;lon;timestamp;P1;durP1;ratioP1;P2;durP2;ratioP2
7879;SDS011;3985;49.366;2.738;2022-12-13T00:00:49;48.25;;;43.75;;
7879;SDS011;3985;49.366;2.738;2022-12-13T00:03:16;50.50;;;45.25;;
7879;SDS011;3985;49.366;2.738;2022-12-13T00:05:44;49.25;;;43.75;;
7879;SDS011;3985;49.366;2.738;2022-12-13T00:08:12;50.75;;;45.75;;
7879;SDS011;3985;49.366;2.738;2022-12-13T00:10:41;65.25;;;52.50;;
7879;SDS011;3985;49.366;2.738;2022-12-13T00:13:08;67.00;;;57.00;;
7879;SDS011;3985;49.366;2.738;2022-12-13T00:15:36;56.25;;;50.00;;
7879;SDS011;3985;49.366;2.738;2022-12-13T00:18:05;50.50;;;46.75;;
7879;SDS011;3985;49.366;2.738;2022-12-13T00:20:33;55.50;;;45.75;;
7879;SDS011;3985;49.366;2.738;2022-12-13T00:23:00;56.00;;;49.25;;
7879;SDS011;3985;49.366;2.738;2022-12-13T00:25:28;51.25;;;46.75;;
7879;SDS011;3985;49.366;2.738;2022-12-13T00:27:55;55.50;;;47.50;;
7879;SDS011;3985;49.366;2.738;2022-12-13T00:30:22;41.75;;;40.25;;
7879;SDS011;3985;49.366;2.738;2022-12-13T00:32:50;50.50;;;42.75;;
7879;SDS011;3985;49.366;2.738;2022-12-13T00:35:20;44.75;;;42.25;;
7879;SDS011;3985;49.366;2.738;2022-12-13T00:37:50;36.75;;;35.00;;
7879;SDS011;3985;49.366;2.738;2022-12-13T00:40:19;39.00;;;38.25;;
7879;SDS011;3985;49.366;2.738;2022-12-13T00:42:47;46.00;;;43.00;;
7879;SDS011;3985;49.366;2.738;2022-12-13T00:45:15;33.25;;;32.25;;
7879;SDS011;3985;49.366;2.738;2022-12-13T00:47:44;39.00;;;37.50;;
7879;SDS011;3985;49.366;2.738;2022-12-13T00:50:12;41.75;;;38.25;;
7879;SDS011;3985;49.366;2.738;2022-12-13T00:52:41;43.50;;;41.50;;
7879;SDS011;3985;49.366;2.738;2022-12-13T00:55:09;38.00;;;35.25;;
7879;SDS011;3985;49.366;2.738;2022-12-13T00:57:37;39.00;;;39.00;;
7879;SDS011;3985;49.366;2.738;2022-12-13T01:00:05;42.75;;;41.50;;
7879;SDS011;3985;49.366;2.738;2022-12-13T01:02:34;40.50;;;39.25;;
7879;SDS011;3985;49.366;2.738;2022-12-13T01:05:03;41.75;;;36.50;;
7879;SDS011;3985;49.366;2.738;2022-12-13T01:07:31;32.25;;;32.25;;
7879;SDS011;3985;49.366;2.738;2022-12-13T01:10:00;48.25;;;45.25;;
7879;SDS011;3985;49.366;2.738;2022-12-13T01:12:28;44.25;;;43.00;;
7879;SDS011;3985;49.366;2.738;2022-12-13T01:14:55;44.00;;;43.00;;
7879;SDS011;3985;49.366;2.738;2022-12-13T01:17:23;42.25;;;42.25;;
7879;SDS011;3985;49.366;2.738;2022-12-13T01:19:50;45.50;;;42.75;;
7879;SDS011;3985;49.366;2.738;2022-12-13T01:22:21;44.50;;;42.25;;
7879;SDS011;3985;49.366;2.738;2022-12-13T01:24:49;54.25;;;49.75;;
7879;SDS011;3985;49.366;2.738;2022-12-13T01:27:18;44.75;;;39.50;;
7879;SDS011;3985;49.366;2.738;2022-12-13T01:29:46;40.50;;;40.50;;
7879;SDS011;3985;49.366;2.738;2022-12-13T01:32:15;53.75;;;48.75;;
7879;SDS011;3985;49.366;2.738;2022-12-13T01:34:43;55.50;;;48.50;;
7879;SDS011;3985;49.366;2.738;2022-12-13T01:37:11;43.50;;;42.00;;
7879;SDS011;3985;49.366;2.738;2022-12-13T01:39:41;46.50;;;42.50;;
7879;SDS011;3985;49.366;2.738;2022-12-13T01:42:09;46.25;;;43.75;;
7879;SDS011;3985;49.366;2.738;2022-12-13T01:47:52;53.75;;;46.25;;
7879;SDS011;3985;49.366;2.738;2022-12-13T01:50:21;47.75;;;43.50;;
7879;SDS011;3985;49.366;2.738;2022-12-13T01:52:51;66.00;;;52.50;;
7879;SDS011;3985;49.366;2.738;2022-12-13T01:55:21;47.50;;;43.50;;
7879;SDS011;3985;49.366;2.738;2022-12-13T01:57:51;58.00;;;46.50;;
7879;SDS011;3985;49.366;2.738;2022-12-13T02:00:21;53.00;;;47.25;;
7879;SDS011;3985;49.366;2.738;2022-12-13T02:02:51;51.00;;;43.75;;
7879;SDS011;3985;49.366;2.738;2022-12-13T02:05:21;51.50;;;44.50;;
7879;SDS011;3985;49.366;2.738;2022-12-13T02:07:52;47.00;;;41.00;;
7879;SDS011;3985;49.366;2.738;2022-12-13T02:10:20;58.00;;;49.00;;
7879;SDS011;3985;49.366;2.738;2022-12-13T02:12:47;54.50;;;46.25;;
7879;SDS011;3985;49.366;2.738;2022-12-13T02:15:18;49.00;;;46.00;;
7879;SDS011;3985;49.366;2.738;2022-12-13T02:17:51;51.50;;;47.50;;
7879;SDS011;3985;49.366;2.738;2022-12-13T02:20:42;50.50;;;44.25;;
7879;SDS011;3985;49.366;2.738;2022-12-13T02:23:36;46.25;;;43.75;;
7879;SDS011;3985;49.366;2.738;2022-12-13T02:26:33;48.50;;;45.75;;
7879;SDS011;3985;49.366;2.738;2022-12-13T02:29:25;46.75;;;43.75;;
7879;SDS011;3985;49.366;2.738;2022-12-13T02:32:24;42.75;;;41.00;;
7879;SDS011;3985;49.366;2.738;2022-12-13T02:34:56;49.00;;;44.50;;
7879;SDS011;3985;49.366;2.738;2022-12-13T02:37:29;38.00;;;36.50;;
7879;SDS011;3985;49.366;2.738;2022-12-13T02:40:04;33.00;;;33.00;;
7879;SDS011;3985;49.366;2.738;2022-12-13T02:42:37;34.00;;;34.00;;
7879;SDS011;3985;49.366;2.738;2022-12-13T02:45:10;36.50;;;35.50;;
7879;SDS011;3985;49.366;2.738;2022-12-13T02:47:44;23.50;;;23.50;;
7879;SDS011;3985;49.366;2.738;2022-12-13T02:50:12;29.00;;;25.25;;
7879;SDS011;3985;49.366;2.738;2022-12-13T02:52:41;36.50;;;35.50;;
7879;SDS011;3985;49.366;2.738;2022-12-13T02:55:11;39.25;;;39.25;;
7879;SDS011;3985;49.366;2.738;2022-12-13T02:57:40;32.50;;;30.00;;
7879;SDS011;3985;49.366;2.738;2022-12-13T03:00:09;25.75;;;23.00;;
7879;SDS011;3985;49.366;2.738;2022-12-13T03:02:41;34.25;;;32.00;;
7879;SDS011;3985;49.366;2.738;2022-12-13T03:05:16;34.00;;;34.00;;
7879;SDS011;3985;49.366;2.738;2022-12-13T03:08:11;33.50;;;30.50;;
7879;SDS011;3985;49.366;2.738;2022-12-13T03:10:47;29.00;;;29.00;;
7879;SDS011;3985;49.366;2.738;2022-12-13T03:13:24;36.00;;;36.00;;
7879;SDS011;3985;49.366;2.738;2022-12-13T03:16:13;37.00;;;35.25;;
7879;SDS011;3985;49.366;2.738;2022-12-13T03:18:54;26.00;;;26.00;;
7879;SDS011;3985;49.366;2.738;2022-12-13T03:21:24;33.25;;;33.00;;
7879;SDS011;3985;49.366;2.738;2022-12-13T03:23:52;32.50;;;30.00;;
7879;SDS011;3985;49.366;2.738;2022-12-13T03:26:20;27.50;;;27.50;;
7879;SDS011;3985;49.366;2.738;2022-12-13T03:28:48;29.75;;;27.00;;
7879;SDS011;3985;49.366;2.738;2022-12-13T03:31:17;32.25;;;32.25;;
7879;SDS011;3985;49.366;2.738;2022-12-13T03:33:45;29.00;;;29.00;;
7879;SDS011;3985;49.366;2.738;2022-12-13T03:36:14;36.00;;;34.50;;
7879;SDS011;3985;49.366;2.738;2022-12-13T03:38:42;28.75;;;28.75;;
7879;SDS011;3985;49.366;2.738;2022-12-13T03:41:12;42.00;;;39.25;;
7879;SDS011;3985;49.366;2.738;2022-12-13T03:43:40;35.50;;;32.50;;
7879;SDS011;3985;49.366;2.738;2022-12-13T03:46:08;29.50;;;28.00;;
7879;SDS011;3985;49.366;2.738;2022-12-13T03:48:36;35.25;;;34.75;;
7879;SDS011;3985;49.366;2.738;2022-12-13T03:51:03;36.75;;;35.25;;
7879;SDS011;3985;49.366;2.738;2022-12-13T03:53:33;39.00;;;38.25;;
7879;SDS011;3985;49.366;2.738;2022-12-13T03:56:01;31.75;;;31.75;;
7879;SDS011;3985;49.366;2.738;2022-12-13T03:58:29;32.75;;;31.25;;
7879;SDS011;3985;49.366;2.738;2022-12-13T04:00:57;38.25;;;33.50;;
7879;SDS011;3985;49.366;2.738;2022-12-13T04:03:24;33.25;;;31.00;;
7879;SDS011;3985;49.366;2.738;2022-12-13T04:05:52;29.00;;;26.75;;
7879;SDS011;3985;49.366;2.738;2022-12-13T04:08:19;30.00;;;30.00;;
7879;SDS011;3985;49.366;2.738;2022-12-13T04:10:51;30.25;;;30.25;;
7879;SDS011;3985;49.366;2.738;2022-12-13T04:13:18;25.50;;;25.50;;
7879;SDS011;3985;49.366;2.738;2022-12-13T04:15:56;27.25;;;27.25;;
7879;SDS011;3985;49.366;2.738;2022-12-13T04:18:24;30.00;;;29.50;;
7879;SDS011;3985;49.366;2.738;2022-12-13T04:20:52;34.00;;;34.00;;
7879;SDS011;3985;49.366;2.738;2022-12-13T04:23:19;38.50;;;38.50;;
7879;SDS011;3985;49.366;2.738;2022-12-13T04:25:49;40.25;;;39.00;;
7879;SDS011;3985;49.366;2.738;2022-12-13T04:28:16;41.00;;;39.75;;
7879;SDS011;3985;49.366;2.738;2022-12-13T04:30:44;36.50;;;35.00;;
7879;SDS011;3985;49.366;2.738;2022-12-13T04:33:11;24.25;;;22.50;;
7879;SDS011;3985;49.366;2.738;2022-12-13T04:35:39;27.50;;;27.50;;
7879;SDS011;3985;49.366;2.738;2022-12-13T04:38:07;30.00;;;25.50;;
7879;SDS011;3985;49.366;2.738;2022-12-13T04:40:34;37.00;;;35.00;;
7879;SDS011;3985;49.366;2.738;2022-12-13T04:43:03;26.00;;;26.00;;
7879;SDS011;3985;49.366;2.738;2022-12-13T04:45:31;40.25;;;35.50;;
7879;SDS011;3985;49.366;2.738;2022-12-13T04:47:58;37.75;;;34.00;;
7879;SDS011;3985;49.366;2.738;2022-12-13T04:50:26;27.50;;;27.50;;
7879;SDS011;3985;49.366;2.738;2022-12-13T04:52:54;33.50;;;33.25;;
7879;SDS011;3985;49.366;2.738;2022-12-13T04:55:21;39.25;;;36.50;;
7879;SDS011;3985;49.366;2.738;2022-12-13T04:57:49;29.00;;;27.25;;
7879;SDS011;3985;49.366;2.738;2022-12-13T05:00:20;36.25;;;36.25;;
7879;SDS011;3985;49.366;2.738;2022-12-13T05:02:51;27.25;;;27.25;;
7879;SDS011;3985;49.366;2.738;2022-12-13T05:05:18;31.50;;;29.00;;
7879;SDS011;3985;49.366;2.738;2022-12-13T05:07:46;32.00;;;31.25;;
7879;SDS011;3985;49.366;2.738;2022-12-13T05:10:16;35.25;;;33.75;;
7879;SDS011;3985;49.366;2.738;2022-12-13T05:12:43;29.00;;;28.50;;
7879;SDS011;3985;49.366;2.738;2022-12-13T05:15:11;17.25;;;17.25;;
7879;SDS011;3985;49.366;2.738;2022-12-13T05:17:40;26.50;;;26.50;;
7879;SDS011;3985;49.366;2.738;2022-12-13T05:20:08;38.00;;;33.75;;
7879;SDS011;3985;49.366;2.738;2022-12-13T05:22:37;34.50;;;32.50;;
7879;SDS011;3985;49.366;2.738;2022-12-13T05:25:05;33.50;;;32.25;;
7879;SDS011;3985;49.366;2.738;2022-12-13T05:27:33;41.75;;;41.50;;
7879;SDS011;3985;49.366;2.738;2022-12-13T05:30:00;33.75;;;32.50;;
7879;SDS011;3985;49.366;2.738;2022-12-13T05:32:29;33.75;;;33.75;;
7879;SDS011;3985;49.366;2.738;2022-12-13T05:35:02;34.00;;;32.50;;
7879;SDS011;3985;49.366;2.738;2022-12-13T05:37:30;35.50;;;34.75;;
7879;SDS011;3985;49.366;2.738;2022-12-13T05:39:57;36.00;;;32.75;;
7879;SDS011;3985;49.366;2.738;2022-12-13T05:42:24;36.00;;;36.00;;
7879;SDS011;3985;49.366;2.738;2022-12-13T05:44:52;30.00;;;29.00;;
7879;SDS011;3985;49.366;2.738;2022-12-13T05:47:21;39.75;;;38.75;;
7879;SDS011;3985;49.366;2.738;2022-12-13T05:49:49;35.00;;;34.25;;
7879;SDS011;3985;49.366;2.738;2022-12-13T05:52:19;37.00;;;37.00;;
7879;SDS011;3985;49.366;2.738;2022-12-13T05:54:47;38.50;;;37.75;;
7879;SDS011;3985;49.366;2.738;2022-12-13T05:57:19;29.50;;;29.50;;
7879;SDS011;3985;49.366;2.738;2022-12-13T05:59:46;34.25;;;34.25;;
7879;SDS011;3985;49.366;2.738;2022-12-13T06:02:16;40.75;;;40.00;;
7879;SDS011;3985;49.366;2.738;2022-12-13T06:04:44;36.00;;;35.75;;
7879;SDS011;3985;49.366;2.738;2022-12-13T06:07:12;45.00;;;43.25;;
7879;SDS011;3985;49.366;2.738;2022-12-13T06:09:41;44.25;;;39.25;;
7879;SDS011;3985;49.366;2.738;2022-12-13T06:12:09;41.50;;;38.75;;
7879;SDS011;3985;49.366;2.738;2022-12-13T06:14:36;27.75;;;27.25;;
7879;SDS011;3985;49.366;2.738;2022-12-13T06:17:04;36.75;;;36.75;;
7879;SDS011;3985;49.366;2.738;2022-12-13T06:19:32;30.50;;;30.50;;
7879;SDS011;3985;49.366;2.738;2022-12-13T06:21:59;47.50;;;40.75;;
7879;SDS011;3985;49.366;2.738;2022-12-13T06:24:27;48.00;;;45.00;;
7879;SDS011;3985;49.366;2.738;2022-12-13T06:26:56;35.00;;;34.25;;
7879;SDS011;3985;49.366;2.738;2022-12-13T06:29:24;44.25;;;43.50;;
7879;SDS011;3985;49.366;2.738;2022-12-13T06:31:52;43.75;;;40.25;;
7879;SDS011;3985;49.366;2.738;2022-12-13T06:34:21;62.75;;;53.25;;
7879;SDS011;3985;49.366;2.738;2022-12-13T06:36:49;46.00;;;45.00;;
7879;SDS011;3985;49.366;2.738;2022-12-13T06:39:17;68.50;;;57.50;;
7879;SDS011;3985;49.366;2.738;2022-12-13T06:41:45;36.75;;;36.25;;
7879;SDS011;3985;49.366;2.738;2022-12-13T06:44:15;53.75;;;47.50;;
7879;SDS011;3985;49.366;2.738;2022-12-13T06:46:42;40.25;;;40.25;;
7879;SDS011;3985;49.366;2.738;2022-12-13T06:49:12;40.75;;;39.50;;
7879;SDS011;3985;49.366;2.738;2022-12-13T06:51:40;41.75;;;41.75;;
7879;SDS011;3985;49.366;2.738;2022-12-13T06:54:07;38.25;;;38.25;;
7879;SDS011;3985;49.366;2.738;2022-12-13T06:56:35;38.00;;;38.00;;
7879;SDS011;3985;49.366;2.738;2022-12-13T06:59:03;36.00;;;35.00;;
7879;SDS011;3985;49.366;2.738;2022-12-13T07:01:33;43.00;;;42.00;;
7879;SDS011;3985;49.366;2.738;2022-12-13T07:04:01;51.00;;;42.00;;
7879;SDS011;3985;49.366;2.738;2022-12-13T07:06:28;40.50;;;36.75;;
7879;SDS011;3985;49.366;2.738;2022-12-13T07:08:56;27.50;;;27.25;;
7879;SDS011;3985;49.366;2.738;2022-12-13T07:11:25;29.25;;;28.00;;
7879;SDS011;3985;49.366;2.738;2022-12-13T07:13:53;30.50;;;30.50;;
7879;SDS011;3985;49.366;2.738;2022-12-13T07:16:23;37.50;;;37.50;;
7879;SDS011;3985;49.366;2.738;2022-12-13T07:18:54;27.00;;;27.00;;
7879;SDS011;3985;49.366;2.738;2022-12-13T07:21:22;39.25;;;37.25;;
7879;SDS011;3985;49.366;2.738;2022-12-13T07:23:50;36.00;;;36.00;;
7879;SDS011;3985;49.366;2.738;2022-12-13T07:26:17;35.75;;;34.00;;
7879;SDS011;3985;49.366;2.738;2022-12-13T07:28:45;47.00;;;42.25;;
7879;SDS011;3985;49.366;2.738;2022-12-13T07:31:15;34.50;;;34.50;;
7879;SDS011;3985;49.366;2.738;2022-12-13T07:33:43;41.00;;;39.50;;
7879;SDS011;3985;49.366;2.738;2022-12-13T07:36:13;42.00;;;42.00;;
7879;SDS011;3985;49.366;2.738;2022-12-13T07:38:41;38.25;;;35.25;;
7879;SDS011;3985;49.366;2.738;2022-12-13T07:41:09;37.00;;;37.00;;
7879;SDS011;3985;49.366;2.738;2022-12-13T07:43:36;32.00;;;32.00;;
7879;SDS011;3985;49.366;2.738;2022-12-13T07:46:04;33.25;;;33.25;;
7879;SDS011;3985;49.366;2.738;2022-12-13T07:48:32;42.50;;;41.25;;
7879;SDS011;3985;49.366;2.738;2022-12-13T07:51:00;45.50;;;44.00;;
7879;SDS011;3985;49.366;2.738;2022-12-13T07:53:31;56.25;;;50.75;;
7879;SDS011;3985;49.366;2.738;2022-12-13T07:56:00;45.75;;;44.00;;
7879;SDS011;3985;49.366;2.738;2022-12-13T07:58:28;45.25;;;43.00;;
7879;SDS011;3985;49.366;2.738;2022-12-13T08:00:57;40.25;;;37.75;;
7879;SDS011;3985;49.366;2.738;2022-12-13T08:03:26;40.75;;;36.25;;
7879;SDS011;3985;49.366;2.738;2022-12-13T08:05:59;35.25;;;35.25;;
7879;SDS011;3985;49.366;2.738;2022-12-13T08:08:28;32.75;;;30.00;;
7879;SDS011;3985;49.366;2.738;2022-12-13T08:11:00;46.25;;;42.75;;
7879;SDS011;3985;49.366;2.738;2022-12-13T08:13:28;46.25;;;45.00;;
7879;SDS011;3985;49.366;2.738;2022-12-13T08:15:56;35.25;;;35.25;;
7879;SDS011;3985;49.366;2.738;2022-12-13T08:18:25;34.75;;;34.75;;
7879;SDS011;3985;49.366;2.738;2022-12-13T08:20:56;36.25;;;36.25;;
7879;SDS011;3985;49.366;2.738;2022-12-13T08:23:25;41.00;;;41.00;;
7879;SDS011;3985;49.366;2.738;2022-12-13T08:25:55;34.50;;;34.50;;
7879;SDS011;3985;49.366;2.738;2022-12-13T08:28:23;42.25;;;40.50;;
7879;SDS011;3985;49.366;2.738;2022-12-13T08:30:51;48.00;;;44.00;;
7879;SDS011;3985;49.366;2.738;2022-12-13T08:33:19;35.25;;;34.25;;
7879;SDS011;3985;49.366;2.738;2022-12-13T08:35:47;43.75;;;41.25;;
7879;SDS011;3985;49.366;2.738;2022-12-13T08:38:16;33.25;;;33.25;;
7879;SDS011;3985;49.366;2.738;2022-12-13T08:40:46;44.50;;;42.75;;
7879;SDS011;3985;49.366;2.738;2022-12-13T08:43:15;42.00;;;42.00;;
7879;SDS011;3985;49.366;2.738;2022-12-13T08:45:52;41.75;;;39.50;;
7879;SDS011;3985;49.366;2.738;2022-12-13T08:48:20;49.75;;;46.00;;
7879;SDS011;3985;49.366;2.738;2022-12-13T08:50:47;46.25;;;43.75;;
7879;SDS011;3985;49.366;2.738;2022-12-13T08:53:16;45.75;;;43.25;;
7879;SDS011;3985;49.366;2.738;2022-12-13T08:55:43;42.75;;;41.00;;
7879;SDS011;3985;49.366;2.738;2022-12-13T08:58:11;43.00;;;41.25;;
7879;SDS011;3985;49.366;2.738;2022-12-13T09:00:40;42.25;;;41.50;;
7879;SDS011;3985;49.366;2.738;2022-12-13T09:03:10;33.75;;;33.75;;
7879;SDS011;3985;49.366;2.738;2022-12-13T09:05:37;34.75;;;34.75;;
7879;SDS011;3985;49.366;2.738;2022-12-13T09:08:06;28.50;;;27.25;;
7879;SDS011;3985;49.366;2.738;2022-12-13T09:10:33;38.00;;;38.00;;
7879;SDS011;3985;49.366;2.738;2022-12-13T09:13:01;36.25;;;36.25;;
7879;SDS011;3985;49.366;2.738;2022-12-13T09:15:30;40.25;;;38.00;;
7879;SDS011;3985;49.366;2.738;2022-12-13T09:18:02;32.50;;;32.50;;
7879;SDS011;3985;49.366;2.738;2022-12-13T09:20:30;30.00;;;30.00;;
7879;SDS011;3985;49.366;2.738;2022-12-13T09:22:57;31.25;;;30.75;;
7879;SDS011;3985;49.366;2.738;2022-12-13T09:25:30;32.67;;;32.00;;
7879;SDS011;3985;49.366;2.738;2022-12-13T09:27:57;32.25;;;30.25;;
7879;SDS011;3985;49.366;2.738;2022-12-13T09:30:27;29.50;;;26.50;;
7879;SDS011;3985;49.366;2.738;2022-12-13T09:32:55;40.00;;;37.00;;
7879;SDS011;3985;49.366;2.738;2022-12-13T09:35:23;43.50;;;39.25;;
7879;SDS011;3985;49.366;2.738;2022-12-13T09:37:51;35.00;;;29.67;;
7879;SDS011;3985;49.366;2.738;2022-12-13T09:40:21;48.50;;;45.25;;
7879;SDS011;3985;49.366;2.738;2022-12-13T09:42:49;31.50;;;29.00;;
7879;SDS011;3985;49.366;2.738;2022-12-13T09:45:21;34.50;;;34.50;;
7879;SDS011;3985;49.366;2.738;2022-12-13T09:47:48;36.33;;;36.33;;
7879;SDS011;3985;49.366;2.738;2022-12-13T09:50:18;43.33;;;38.33;;
7879;SDS011;3985;49.366;2.738;2022-12-13T09:52:49;27.67;;;27.67;;
7879;SDS011;3985;49.366;2.738;2022-12-13T09:55:18;27.33;;;27.33;;
7879;SDS011;3985;49.366;2.738;2022-12-13T09:57:46;41.33;;;37.67;;
7879;SDS011;3985;49.366;2.738;2022-12-13T10:00:19;33.67;;;33.67;;
7879;SDS011;3985;49.366;2.738;2022-12-13T10:02:48;40.33;;;39.33;;
7879;SDS011;3985;49.366;2.738;2022-12-13T10:05:18;40.67;;;40.00;;
7879;SDS011;3985;49.366;2.738;2022-12-13T10:07:51;31.00;;;31.00;;
7879;SDS011;3985;49.366;2.738;2022-12-13T10:10:20;19.00;;;19.00;;
7879;SDS011;3985;49.366;2.738;2022-12-13T10:12:49;33.33;;;32.33;;
7879;SDS011;3985;49.366;2.738;2022-12-13T10:15:20;42.67;;;42.33;;
7879;SDS011;3985;49.366;2.738;2022-12-13T10:17:49;29.33;;;29.33;;
7879;SDS011;3985;49.366;2.738;2022-12-13T10:20:17;36.00;;;36.00;;
7879;SDS011;3985;49.366;2.738;2022-12-13T10:22:46;35.67;;;33.67;;
7879;SDS011;3985;49.366;2.738;2022-12-13T10:25:15;33.67;;;31.67;;
7879;SDS011;3985;49.366;2.738;2022-12-13T10:27:43;33.00;;;33.00;;
7879;SDS011;3985;49.366;2.738;2022-12-13T10:30:13;27.67;;;27.67;;
7879;SDS011;3985;49.366;2.738;2022-12-13T10:32:48;31.33;;;29.67;;
7879;SDS011;3985;49.366;2.738;2022-12-13T10:35:28;37.00;;;33.00;;
7879;SDS011;3985;49.366;2.738;2022-12-13T10:37:58;29.00;;;28.33;;
7879;SDS011;3985;49.366;2.738;2022-12-13T10:40:32;25.67;;;25.67;;
7879;SDS011;3985;49.366;2.738;2022-12-13T10:43:05;20.33;;;18.00;;
7879;SDS011;3985;49.366;2.738;2022-12-13T10:45:33;33.00;;;33.00;;
7879;SDS011;3985;49.366;2.738;2022-12-13T10:48:04;24.33;;;24.33;;
7879;SDS011;3985;49.366;2.738;2022-12-13T10:50:36;32.00;;;31.00;;
7879;SDS011;3985;49.366;2.738;2022-12-13T10:53:03;33.67;;;32.00;;
7879;SDS011;3985;49.366;2.738;2022-12-13T10:55:34;31.00;;;29.67;;
7879;SDS011;3985;49.366;2.738;2022-12-13T10:58:03;34.67;;;29.33;;
7879;SDS011;3985;49.366;2.738;2022-12-13T11:00:37;25.33;;;22.00;;
7879;SDS011;3985;49.366;2.738;2022-12-13T11:03:09;33.00;;;32.67;;
7879;SDS011;3985;49.366;2.738;2022-12-13T11:05:40;30.67;;;28.67;;
7879;SDS011;3985;49.366;2.738;2022-12-13T11:08:13;29.67;;;27.67;;
7879;SDS011;3985;49.366;2.738;2022-12-13T11:10:45;35.00;;;30.00;;
7879;SDS011;3985;49.366;2.738;2022-12-13T11:13:23;36.00;;;29.00;;
7879;SDS011;3985;49.366;2.738;2022-12-13T11:15:58;31.33;;;27.33;;
7879;SDS011;3985;49.366;2.738;2022-12-13T11:18:28;25.67;;;24.67;;
7879;SDS011;3985;49.366;2.738;2022-12-13T11:21:00;28.67;;;23.33;;
7879;SDS011;3985;49.366;2.738;2022-12-13T11:23:32;29.67;;;29.67;;
7879;SDS011;3985;49.366;2.738;2022-12-13T11:26:04;23.67;;;23.67;;
7879;SDS011;3985;49.366;2.738;2022-12-13T11:28:38;29.00;;;29.00;;
7879;SDS011;3985;49.366;2.738;2022-12-13T11:31:21;32.00;;;26.33;;
7879;SDS011;3985;49.366;2.738;2022-12-13T11:33:53;25.33;;;22.33;;
7879;SDS011;3985;49.366;2.738;2022-12-13T11:36:31;35.00;;;29.33;;
7879;SDS011;3985;49.366;2.738;2022-12-13T11:39:11;34.00;;;27.33;;
7879;SDS011;3985;49.366;2.738;2022-12-13T11:41:44;25.00;;;22.67;;
7879;SDS011;3985;49.366;2.738;2022-12-13T11:44:21;26.67;;;22.33;;
7879;SDS011;3985;49.366;2.738;2022-12-13T11:46:53;33.33;;;26.67;;
7879;SDS011;3985;49.366;2.738;2022-12-13T11:49:27;29.33;;;24.00;;
7879;SDS011;3985;49.366;2.738;2022-12-13T11:52:00;30.00;;;27.33;;
7879;SDS011;3985;49.366;2.738;2022-12-13T11:54:31;31.00;;;25.00;;
7879;SDS011;3985;49.366;2.738;2022-12-13T11:57:08;28.33;;;27.67;;
7879;SDS011;3985;49.366;2.738;2022-12-13T11:59:44;23.67;;;21.00;;
7879;SDS011;3985;49.366;2.738;2022-12-13T12:02:15;23.67;;;23.67;;
7879;SDS011;3985;49.366;2.738;2022-12-13T12:04:47;26.25;;;21.75;;
7879;SDS011;3985;49.366;2.738;2022-12-13T12:07:16;24.75;;;21.00;;
7879;SDS011;3985;49.366;2.738;2022-12-13T12:09:46;24.00;;;22.00;;
7879;SDS011;3985;49.366;2.738;2022-12-13T12:12:18;24.50;;;24.50;;
7879;SDS011;3985;49.366;2.738;2022-12-13T12:14:51;22.00;;;21.50;;
7879;SDS011;3985;49.366;2.738;2022-12-13T12:17:21;19.75;;;17.00;;
7879;SDS011;3985;49.366;2.738;2022-12-13T12:19:50;27.75;;;24.75;;
7879;SDS011;3985;49.366;2.738;2022-12-13T12:22:23;24.50;;;19.50;;
7879;SDS011;3985;49.366;2.738;2022-12-13T12:27:47;21.50;;;19.75;;
7879;SDS011;3985;49.366;2.738;2022-12-13T12:30:22;24.67;;;23.67;;
7879;SDS011;3985;49.366;2.738;2022-12-13T12:32:52;25.00;;;24.25;;
7879;SDS011;3985;49.366;2.738;2022-12-13T12:35:37;18.50;;;18.50;;
7879;SDS011;3985;49.366;2.738;2022-12-13T12:38:36;14.75;;;12.25;;
7879;SDS011;3985;49.366;2.738;2022-12-13T12:41:44;12.50;;;10.00;;
7879;SDS011;3985;49.366;2.738;2022-12-13T12:44:22;22.00;;;22.00;;
7879;SDS011;3985;49.366;2.738;2022-12-13T12:47:01;21.50;;;17.25;;
7879;SDS011;3985;49.366;2.738;2022-12-13T12:49:47;24.25;;;21.50;;
7879;SDS011;3985;49.366;2.738;2022-12-13T12:52:23;26.25;;;20.00;;
7879;SDS011;3985;49.366;2.738;2022-12-13T12:54:57;18.50;;;18.00;;
7879;SDS011;3985;49.366;2.738;2022-12-13T12:57:32;26.50;;;22.50;;
7879;SDS011;3985;49.366;2.738;2022-12-13T13:00:09;25.25;;;21.25;;
7879;SDS011;3985;49.366;2.738;2022-12-13T13:02:40;26.00;;;23.50;;
7879;SDS011;3985;49.366;2.738;2022-12-13T13:05:14;27.33;;;26.00;;
7879;SDS011;3985;49.366;2.738;2022-12-13T13:07:46;21.33;;;21.33;;
7879;SDS011;3985;49.366;2.738;2022-12-13T13:10:19;24.00;;;24.00;;
7879;SDS011;3985;49.366;2.738;2022-12-13T13:12:48;22.00;;;18.33;;
7879;SDS011;3985;49.366;2.738;2022-12-13T13:21:23;22.33;;;22.33;;
7879;SDS011;3985;49.366;2.738;2022-12-13T13:24:03;24.33;;;23.00;;
7879;SDS011;3985;49.366;2.738;2022-12-13T13:26:33;21.33;;;18.67;;
7879;SDS011;3985;49.366;2.738;2022-12-13T13:32:01;27.67;;;22.33;;
7879;SDS011;3985;49.366;2.738;2022-12-13T13:34:32;23.33;;;22.00;;
7879;SDS011;3985;49.366;2.738;2022-12-13T13:37:01;31.00;;;27.33;;
7879;SDS011;3985;49.366;2.738;2022-12-13T13:39:54;24.00;;;21.67;;
7879;SDS011;3985;49.366;2.738;2022-12-13T13:42:23;26.00;;;22.33;;
7879;SDS011;3985;49.366;2.738;2022-12-13T13:44:53;22.00;;;19.00;;
7879;SDS011;3985;49.366;2.738;2022-12-13T13:47:32;19.67;;;18.67;;
7879;SDS011;3985;49.366;2.738;2022-12-13T13:53:14;28.00;;;23.33;;
7879;SDS011;3985;49.366;2.738;2022-12-13T13:56:07;25.00;;;22.00;;
7879;SDS011;3985;49.366;2.738;2022-12-13T13:59:03;26.00;;;24.00;;
7879;SDS011;3985;49.366;2.738;2022-12-13T14:08:27;29.33;;;28.00;;
7879;SDS011;3985;49.366;2.738;2022-12-13T14:20:31;21.00;;;19.00;;
7879;SDS011;3985;49.366;2.738;2022-12-13T14:23:09;25.67;;;22.33;;
7879;SDS011;3985;49.366;2.738;2022-12-13T14:25:50;25.67;;;22.00;;
7879;SDS011;3985;49.366;2.738;2022-12-13T14:28:31;31.33;;;22.33;;
7879;SDS011;3985;49.366;2.738;2022-12-13T14:31:12;18.67;;;18.00;;
7879;SDS011;3985;49.366;2.738;2022-12-13T14:33:42;29.00;;;26.33;;
7879;SDS011;3985;49.366;2.738;2022-12-13T14:36:13;22.00;;;19.00;;
7879;SDS011;3985;49.366;2.738;2022-12-13T14:38:43;18.67;;;18.00;;
7879;SDS011;3985;49.366;2.738;2022-12-13T14:41:15;28.00;;;23.33;;
7879;SDS011;3985;49.366;2.738;2022-12-13T14:43:44;28.33;;;23.67;;
7879;SDS011;3985;49.366;2.738;2022-12-13T14:46:12;23.33;;;20.67;;
7879;SDS011;3985;49.366;2.738;2022-12-13T14:48:44;27.00;;;20.33;;
7879;SDS011;3985;49.366;2.738;2022-12-13T14:51:20;24.67;;;20.67;;
7879;SDS011;3985;49.366;2.738;2022-12-13T14:53:54;32.33;;;25.67;;
7879;SDS011;3985;49.366;2.738;2022-12-13T14:56:25;18.00;;;13.33;;
7879;SDS011;3985;49.366;2.738;2022-12-13T14:58:53;22.67;;;19.33;;
7879;SDS011;3985;49.366;2.738;2022-12-13T15:01:26;25.67;;;25.00;;
7879;SDS011;3985;49.366;2.738;2022-12-13T15:06:42;25.33;;;24.00;;
7879;SDS011;3985;49.366;2.738;2022-12-13T15:09:12;27.67;;;23.00;;
7879;SDS011;3985;49.366;2.738;2022-12-13T15:11:44;33.00;;;31.67;;
7879;SDS011;3985;49.366;2.738;2022-12-13T15:14:13;40.67;;;36.67;;
7879;SDS011;3985;49.366;2.738;2022-12-13T15:16:45;32.33;;;25.33;;
7879;SDS011;3985;49.366;2.738;2022-12-13T15:19:15;31.67;;;26.00;;
7879;SDS011;3985;49.366;2.738;2022-12-13T15:21:52;35.00;;;32.00;;
7879;SDS011;3985;49.366;2.738;2022-12-13T15:24:21;38.00;;;33.33;;
7879;SDS011;3985;49.366;2.738;2022-12-13T15:26:54;37.00;;;33.00;;
7879;SDS011;3985;49.366;2.738;2022-12-13T15:29:24;32.33;;;29.33;;
7879;SDS011;3985;49.366;2.738;2022-12-13T15:31:54;22.67;;;20.33;;
7879;SDS011;3985;49.366;2.738;2022-12-13T15:34:29;35.33;;;30.00;;
7879;SDS011;3985;49.366;2.738;2022-12-13T15:37:02;29.67;;;26.33;;
7879;SDS011;3985;49.366;2.738;2022-12-13T15:39:35;30.67;;;28.67;;
7879;SDS011;3985;49.366;2.738;2022-12-13T15:42:10;35.67;;;34.33;;
7879;SDS011;3985;49.366;2.738;2022-12-13T15:44:45;38.33;;;36.00;;
7879;SDS011;3985;49.366;2.738;2022-12-13T15:47:14;39.00;;;32.33;;